sensor_id;sensor_type;location;lat;lon;timestamp;P1;durP1;ratioP1;P2;durP2;ratioP2
30249;SDS011;17064;47.974;13.826;2024-02-16T00:00:01;3.22;;;1.65;;
30249;SDS011;17064;47.974;13.826;2024-02-16T00:05:21;1.70;;;1.15;;
30249;SDS011;17064;47.974;13.826;2024-02-16T00:10:41;2.30;;;1.40;;
30249;SDS011;17064;47.974;13.826;2024-02-16T00:16:01;2.67;;;1.20;;
30249;SDS011;17064;47.974;13.826;2024-02-16T00:21:21;2.45;;;1.00;;
30249;SDS011;17064;47.974;13.826;2024-02-16T00:26:40;2.00;;;1.35;;
30249;SDS011;17064;47.974;13.826;2024-02-16T00:31:59;1.42;;;1.17;;
30249;SDS011;17064;47.974;13.826;2024-02-16T00:37:19;2.08;;;1.30;;
30249;SDS011;17064;47.974;13.826;2024-02-16T00:42:38;2.72;;;1.40;;
30249;SDS011;17064;47.974;13.826;2024-02-16T00:47:58;2.17;;;1.42;;
30249;SDS011;17064;47.974;13.826;2024-02-16T00:53:17;3.50;;;1.58;;
30249;SDS011;17064;47.974;13.826;2024-02-16T00:58:40;4.28;;;1.85;;
30249;SDS011;17064;47.974;13.826;2024-02-16T01:04:01;2.65;;;1.90;;
30249;SDS011;17064;47.974;13.826;2024-02-16T01:09:21;2.85;;;1.70;;
30249;SDS011;17064;47.974;13.826;2024-02-16T01:14:40;2.90;;;2.00;;
30249;SDS011;17064;47.974;13.826;2024-02-16T01:20:00;3.78;;;2.00;;
30249;SDS011;17064;47.974;13.826;2024-02-16T01:25:19;2.75;;;1.45;;
30249;SDS011;17064;47.974;13.826;2024-02-16T01:30:39;2.53;;;1.33;;
30249;SDS011;17064;47.974;13.826;2024-02-16T01:35:58;2.95;;;1.50;;
30249;SDS011;17064;47.974;13.826;2024-02-16T01:41:17;2.03;;;1.17;;
30249;SDS011;17064;47.974;13.826;2024-02-16T01:46:36;2.08;;;1.50;;
30249;SDS011;17064;47.974;13.826;2024-02-16T01:51:56;5.20;;;1.23;;
30249;SDS011;17064;47.974;13.826;2024-02-16T01:57:15;1.90;;;1.35;;
30249;SDS011;17064;47.974;13.826;2024-02-16T02:02:35;4.82;;;1.85;;
30249;SDS011;17064;47.974;13.826;2024-02-16T02:07:55;5.18;;;2.15;;
30249;SDS011;17064;47.974;13.826;2024-02-16T02:13:14;10.80;;;2.97;;
30249;SDS011;17064;47.974;13.826;2024-02-16T02:18:33;6.40;;;3.55;;
30249;SDS011;17064;47.974;13.826;2024-02-16T02:23:53;7.18;;;3.88;;
30249;SDS011;17064;47.974;13.826;2024-02-16T02:29:12;3.75;;;1.90;;
30249;SDS011;17064;47.974;13.826;2024-02-16T02:34:32;4.85;;;2.15;;
30249;SDS011;17064;47.974;13.826;2024-02-16T02:39:51;6.25;;;2.55;;
30249;SDS011;17064;47.974;13.826;2024-02-16T02:45:10;6.30;;;3.22;;
30249;SDS011;17064;47.974;13.826;2024-02-16T02:50:30;8.82;;;4.25;;
30249;SDS011;17064;47.974;13.826;2024-02-16T02:55:50;8.82;;;4.10;;
30249;SDS011;17064;47.974;13.826;2024-02-16T03:01:10;8.45;;;4.70;;
30249;SDS011;17064;47.974;13.826;2024-02-16T03:06:30;9.80;;;4.40;;
30249;SDS011;17064;47.974;13.826;2024-02-16T03:11:49;6.55;;;4.20;;
30249;SDS011;17064;47.974;13.826;2024-02-16T03:17:09;10.18;;;4.60;;
30249;SDS011;17064;47.974;13.826;2024-02-16T03:22:28;10.20;;;4.88;;
30249;SDS011;17064;47.974;13.826;2024-02-16T03:27:48;9.73;;;4.78;;
30249;SDS011;17064;47.974;13.826;2024-02-16T03:33:07;9.32;;;4.78;;
30249;SDS011;17064;47.974;13.826;2024-02-16T03:38:27;8.75;;;5.13;;
30249;SDS011;17064;47.974;13.826;2024-02-16T03:43:46;10.90;;;5.75;;
30249;SDS011;17064;47.974;13.826;2024-02-16T03:49:06;10.75;;;6.47;;
30249;SDS011;17064;47.974;13.826;2024-02-16T03:54:25;11.20;;;6.75;;
30249;SDS011;17064;47.974;13.826;2024-02-16T03:59:45;10.73;;;6.28;;
30249;SDS011;17064;47.974;13.826;2024-02-16T04:05:05;11.10;;;6.63;;
30249;SDS011;17064;47.974;13.826;2024-02-16T04:10:26;10.80;;;6.50;;
30249;SDS011;17064;47.974;13.826;2024-02-16T04:15:46;9.35;;;6.47;;
30249;SDS011;17064;47.974;13.826;2024-02-16T04:21:05;11.70;;;6.93;;
30249;SDS011;17064;47.974;13.826;2024-02-16T04:26:25;10.85;;;7.03;;
30249;SDS011;17064;47.974;13.826;2024-02-16T04:31:44;9.75;;;6.53;;
30249;SDS011;17064;47.974;13.826;2024-02-16T04:37:05;10.80;;;7.10;;
30249;SDS011;17064;47.974;13.826;2024-02-16T04:42:24;11.60;;;7.10;;
30249;SDS011;17064;47.974;13.826;2024-02-16T04:47:44;12.15;;;7.43;;
30249;SDS011;17064;47.974;13.826;2024-02-16T04:53:03;12.10;;;8.02;;
30249;SDS011;17064;47.974;13.826;2024-02-16T04:58:23;14.65;;;8.05;;
30249;SDS011;17064;47.974;13.826;2024-02-16T05:03:42;11.40;;;7.72;;
30249;SDS011;17064;47.974;13.826;2024-02-16T05:09:02;10.75;;;7.43;;
30249;SDS011;17064;47.974;13.826;2024-02-16T05:14:22;12.40;;;8.00;;
30249;SDS011;17064;47.974;13.826;2024-02-16T05:19:42;11.48;;;6.97;;
30249;SDS011;17064;47.974;13.826;2024-02-16T05:25:02;9.63;;;6.65;;
30249;SDS011;17064;47.974;13.826;2024-02-16T05:30:21;12.43;;;8.18;;
30249;SDS011;17064;47.974;13.826;2024-02-16T05:35:41;13.25;;;8.75;;
30249;SDS011;17064;47.974;13.826;2024-02-16T05:41:03;13.32;;;8.98;;
30249;SDS011;17064;47.974;13.826;2024-02-16T05:46:22;11.55;;;8.30;;
30249;SDS011;17064;47.974;13.826;2024-02-16T05:51:42;13.35;;;7.53;;
30249;SDS011;17064;47.974;13.826;2024-02-16T05:57:19;11.02;;;7.45;;
30249;SDS011;17064;47.974;13.826;2024-02-16T06:02:38;13.05;;;7.68;;
30249;SDS011;17064;47.974;13.826;2024-02-16T06:07:57;14.38;;;7.65;;
30249;SDS011;17064;47.974;13.826;2024-02-16T06:13:18;13.98;;;7.95;;
30249;SDS011;17064;47.974;13.826;2024-02-16T06:18:38;13.90;;;7.55;;
30249;SDS011;17064;47.974;13.826;2024-02-16T06:23:57;13.60;;;7.90;;
30249;SDS011;17064;47.974;13.826;2024-02-16T06:29:17;13.30;;;7.80;;
30249;SDS011;17064;47.974;13.826;2024-02-16T06:34:37;21.25;;;9.52;;
30249;SDS011;17064;47.974;13.826;2024-02-16T06:39:57;14.30;;;7.72;;
30249;SDS011;17064;47.974;13.826;2024-02-16T06:45:16;19.67;;;9.10;;
30249;SDS011;17064;47.974;13.826;2024-02-16T06:50:36;13.82;;;8.88;;
30249;SDS011;17064;47.974;13.826;2024-02-16T06:55:55;14.23;;;8.48;;
30249;SDS011;17064;47.974;13.826;2024-02-16T07:01:14;15.60;;;9.23;;
30249;SDS011;17064;47.974;13.826;2024-02-16T07:06:34;15.15;;;8.98;;
30249;SDS011;17064;47.974;13.826;2024-02-16T07:11:53;16.67;;;9.10;;
30249;SDS011;17064;47.974;13.826;2024-02-16T07:17:12;19.92;;;9.70;;
30249;SDS011;17064;47.974;13.826;2024-02-16T07:22:32;17.48;;;9.52;;
30249;SDS011;17064;47.974;13.826;2024-02-16T07:27:52;17.20;;;8.52;;
30249;SDS011;17064;47.974;13.826;2024-02-16T07:33:12;18.30;;;10.35;;
30249;SDS011;17064;47.974;13.826;2024-02-16T07:38:31;17.55;;;9.98;;
30249;SDS011;17064;47.974;13.826;2024-02-16T07:43:50;19.80;;;11.38;;
30249;SDS011;17064;47.974;13.826;2024-02-16T07:49:10;21.52;;;12.32;;
30249;SDS011;17064;47.974;13.826;2024-02-16T07:54:32;22.98;;;12.60;;
30249;SDS011;17064;47.974;13.826;2024-02-16T07:59:51;19.88;;;11.80;;
30249;SDS011;17064;47.974;13.826;2024-02-16T08:05:11;20.88;;;12.27;;
30249;SDS011;17064;47.974;13.826;2024-02-16T08:10:31;24.77;;;12.43;;
30249;SDS011;17064;47.974;13.826;2024-02-16T08:15:50;22.95;;;12.55;;
30249;SDS011;17064;47.974;13.826;2024-02-16T08:21:10;24.10;;;13.18;;
30249;SDS011;17064;47.974;13.826;2024-02-16T08:26:30;22.23;;;12.38;;
30249;SDS011;17064;47.974;13.826;2024-02-16T08:31:49;31.35;;;14.02;;
30249;SDS011;17064;47.974;13.826;2024-02-16T08:37:10;26.30;;;13.75;;
30249;SDS011;17064;47.974;13.826;2024-02-16T08:42:29;24.63;;;13.63;;
30249;SDS011;17064;47.974;13.826;2024-02-16T08:47:50;24.75;;;14.27;;
30249;SDS011;17064;47.974;13.826;2024-02-16T08:53:10;26.38;;;14.40;;
30249;SDS011;17064;47.974;13.826;2024-02-16T08:58:29;29.88;;;14.40;;
30249;SDS011;17064;47.974;13.826;2024-02-16T09:03:49;34.47;;;15.43;;
30249;SDS011;17064;47.974;13.826;2024-02-16T09:09:08;22.00;;;13.45;;
30249;SDS011;17064;47.974;13.826;2024-02-16T09:14:28;20.33;;;12.25;;
30249;SDS011;17064;47.974;13.826;2024-02-16T09:19:48;24.38;;;12.70;;
30249;SDS011;17064;47.974;13.826;2024-02-16T09:25:07;25.65;;;14.10;;
30249;SDS011;17064;47.974;13.826;2024-02-16T09:30:27;21.90;;;12.55;;
30249;SDS011;17064;47.974;13.826;2024-02-16T09:35:46;22.10;;;12.10;;
30249;SDS011;17064;47.974;13.826;2024-02-16T09:41:06;19.73;;;11.13;;
30249;SDS011;17064;47.974;13.826;2024-02-16T09:46:26;17.42;;;10.77;;
30249;SDS011;17064;47.974;13.826;2024-02-16T09:51:46;18.55;;;10.73;;
30249;SDS011;17064;47.974;13.826;2024-02-16T09:57:06;22.00;;;10.93;;
30249;SDS011;17064;47.974;13.826;2024-02-16T10:08:10;15.90;;;10.07;;
30249;SDS011;17064;47.974;13.826;2024-02-16T10:13:37;19.00;;;10.60;;
30249;SDS011;17064;47.974;13.826;2024-02-16T10:19:04;21.08;;;12.10;;
30249;SDS011;17064;47.974;13.826;2024-02-16T10:24:25;54.78;;;31.02;;
30249;SDS011;17064;47.974;13.826;2024-02-16T10:29:44;22.90;;;12.23;;
30249;SDS011;17064;47.974;13.826;2024-02-16T10:40:27;21.65;;;10.90;;
30249;SDS011;17064;47.974;13.826;2024-02-16T10:45:47;18.42;;;10.50;;
30249;SDS011;17064;47.974;13.826;2024-02-16T10:51:12;27.40;;;11.77;;
30249;SDS011;17064;47.974;13.826;2024-02-16T10:56:33;20.60;;;11.07;;
30249;SDS011;17064;47.974;13.826;2024-02-16T11:02:00;21.15;;;12.60;;
30249;SDS011;17064;47.974;13.826;2024-02-16T11:07:26;20.67;;;12.20;;
30249;SDS011;17064;47.974;13.826;2024-02-16T11:12:45;17.20;;;10.35;;
30249;SDS011;17064;47.974;13.826;2024-02-16T11:18:06;22.30;;;11.15;;
30249;SDS011;17064;47.974;13.826;2024-02-16T11:23:29;16.77;;;9.20;;
30249;SDS011;17064;47.974;13.826;2024-02-16T11:28:50;19.98;;;11.45;;
30249;SDS011;17064;47.974;13.826;2024-02-16T11:34:10;18.60;;;11.57;;
30249;SDS011;17064;47.974;13.826;2024-02-16T11:39:39;23.00;;;11.02;;
30249;SDS011;17064;47.974;13.826;2024-02-16T11:45:03;29.40;;;12.50;;
30249;SDS011;17064;47.974;13.826;2024-02-16T11:50:22;60.53;;;21.08;;
30249;SDS011;17064;47.974;13.826;2024-02-16T11:55:46;24.67;;;11.07;;
30249;SDS011;17064;47.974;13.826;2024-02-16T12:01:10;17.40;;;9.52;;
30249;SDS011;17064;47.974;13.826;2024-02-16T12:06:29;11.10;;;8.43;;
30249;SDS011;17064;47.974;13.826;2024-02-16T12:11:48;14.77;;;9.40;;
30249;SDS011;17064;47.974;13.826;2024-02-16T12:17:08;14.55;;;8.23;;
30249;SDS011;17064;47.974;13.826;2024-02-16T12:22:28;11.82;;;7.38;;
30249;SDS011;17064;47.974;13.826;2024-02-16T12:27:47;12.10;;;7.13;;
30249;SDS011;17064;47.974;13.826;2024-02-16T12:33:06;11.95;;;7.28;;
30249;SDS011;17064;47.974;13.826;2024-02-16T12:38:26;10.85;;;7.00;;
30249;SDS011;17064;47.974;13.826;2024-02-16T12:43:46;10.57;;;5.90;;
30249;SDS011;17064;47.974;13.826;2024-02-16T12:49:06;10.07;;;5.95;;
30249;SDS011;17064;47.974;13.826;2024-02-16T12:54:26;9.30;;;6.32;;
30249;SDS011;17064;47.974;13.826;2024-02-16T12:59:45;9.57;;;6.45;;
30249;SDS011;17064;47.974;13.826;2024-02-16T13:05:05;9.80;;;6.40;;
30249;SDS011;17064;47.974;13.826;2024-02-16T13:10:24;11.18;;;7.32;;
30249;SDS011;17064;47.974;13.826;2024-02-16T13:15:44;10.25;;;7.13;;
30249;SDS011;17064;47.974;13.826;2024-02-16T13:21:03;9.57;;;6.38;;
30249;SDS011;17064;47.974;13.826;2024-02-16T13:26:23;12.73;;;7.25;;
30249;SDS011;17064;47.974;13.826;2024-02-16T13:31:42;14.80;;;7.38;;
30249;SDS011;17064;47.974;13.826;2024-02-16T13:37:02;9.70;;;6.47;;
30249;SDS011;17064;47.974;13.826;2024-02-16T13:42:22;11.13;;;6.45;;
30249;SDS011;17064;47.974;13.826;2024-02-16T13:47:41;10.43;;;6.65;;
30249;SDS011;17064;47.974;13.826;2024-02-16T13:53:01;14.23;;;6.78;;
30249;SDS011;17064;47.974;13.826;2024-02-16T13:58:20;11.10;;;6.43;;
30249;SDS011;17064;47.974;13.826;2024-02-16T14:03:40;12.50;;;6.53;;
30249;SDS011;17064;47.974;13.826;2024-02-16T14:08:59;14.45;;;6.93;;
30249;SDS011;17064;47.974;13.826;2024-02-16T14:14:18;12.82;;;7.38;;
30249;SDS011;17064;47.974;13.826;2024-02-16T14:19:38;14.88;;;7.75;;
30249;SDS011;17064;47.974;13.826;2024-02-16T14:24:57;15.77;;;9.15;;
30249;SDS011;17064;47.974;13.826;2024-02-16T14:30:17;13.68;;;8.10;;
30249;SDS011;17064;47.974;13.826;2024-02-16T14:35:38;14.70;;;9.00;;
30249;SDS011;17064;47.974;13.826;2024-02-16T14:40:57;17.38;;;9.35;;
30249;SDS011;17064;47.974;13.826;2024-02-16T14:46:25;14.65;;;8.20;;
30249;SDS011;17064;47.974;13.826;2024-02-16T14:51:45;17.58;;;8.68;;
30249;SDS011;17064;47.974;13.826;2024-02-16T14:57:05;15.30;;;9.18;;
30249;SDS011;17064;47.974;13.826;2024-02-16T15:02:24;17.88;;;8.80;;
30249;SDS011;17064;47.974;13.826;2024-02-16T15:07:44;15.27;;;8.43;;
30249;SDS011;17064;47.974;13.826;2024-02-16T15:13:04;19.95;;;10.60;;
30249;SDS011;17064;47.974;13.826;2024-02-16T15:18:23;23.05;;;9.95;;
30249;SDS011;17064;47.974;13.826;2024-02-16T15:23:43;20.70;;;9.68;;
30249;SDS011;17064;47.974;13.826;2024-02-16T15:29:02;16.90;;;9.27;;
30249;SDS011;17064;47.974;13.826;2024-02-16T15:34:22;19.73;;;9.55;;
30249;SDS011;17064;47.974;13.826;2024-02-16T15:39:42;17.38;;;8.95;;
30249;SDS011;17064;47.974;13.826;2024-02-16T15:45:01;16.52;;;9.02;;
30249;SDS011;17064;47.974;13.826;2024-02-16T15:50:23;17.95;;;9.18;;
30249;SDS011;17064;47.974;13.826;2024-02-16T15:55:44;17.67;;;9.30;;
30249;SDS011;17064;47.974;13.826;2024-02-16T16:01:04;18.50;;;10.10;;
30249;SDS011;17064;47.974;13.826;2024-02-16T16:06:24;16.40;;;8.55;;
30249;SDS011;17064;47.974;13.826;2024-02-16T16:11:43;19.00;;;10.18;;
30249;SDS011;17064;47.974;13.826;2024-02-16T16:17:06;24.98;;;12.48;;
30249;SDS011;17064;47.974;13.826;2024-02-16T16:22:25;24.05;;;10.85;;
30249;SDS011;17064;47.974;13.826;2024-02-16T16:27:47;26.17;;;12.35;;
30249;SDS011;17064;47.974;13.826;2024-02-16T16:33:07;23.35;;;11.65;;
30249;SDS011;17064;47.974;13.826;2024-02-16T16:38:26;20.42;;;10.57;;
30249;SDS011;17064;47.974;13.826;2024-02-16T16:43:45;22.65;;;10.13;;
30249;SDS011;17064;47.974;13.826;2024-02-16T16:49:05;21.10;;;10.32;;
30249;SDS011;17064;47.974;13.826;2024-02-16T16:54:24;20.40;;;10.55;;
30249;SDS011;17064;47.974;13.826;2024-02-16T16:59:44;22.35;;;11.70;;
30249;SDS011;17064;47.974;13.826;2024-02-16T17:05:03;26.38;;;12.38;;
30249;SDS011;17064;47.974;13.826;2024-02-16T17:10:23;21.25;;;11.13;;
30249;SDS011;17064;47.974;13.826;2024-02-16T17:15:43;22.85;;;11.70;;
30249;SDS011;17064;47.974;13.826;2024-02-16T17:21:03;24.27;;;12.45;;
30249;SDS011;17064;47.974;13.826;2024-02-16T17:26:22;25.17;;;12.10;;
30249;SDS011;17064;47.974;13.826;2024-02-16T17:31:41;21.15;;;11.07;;
30249;SDS011;17064;47.974;13.826;2024-02-16T17:37:01;25.13;;;11.43;;
30249;SDS011;17064;47.974;13.826;2024-02-16T17:42:21;21.85;;;11.68;;
30249;SDS011;17064;47.974;13.826;2024-02-16T17:47:40;23.60;;;12.00;;
30249;SDS011;17064;47.974;13.826;2024-02-16T17:53:00;25.77;;;12.23;;
30249;SDS011;17064;47.974;13.826;2024-02-16T17:58:20;23.40;;;11.68;;
30249;SDS011;17064;47.974;13.826;2024-02-16T18:03:39;24.42;;;10.35;;
30249;SDS011;17064;47.974;13.826;2024-02-16T18:08:58;21.42;;;10.50;;
30249;SDS011;17064;47.974;13.826;2024-02-16T18:14:17;20.58;;;10.80;;
30249;SDS011;17064;47.974;13.826;2024-02-16T18:19:37;22.35;;;10.68;;
30249;SDS011;17064;47.974;13.826;2024-02-16T18:24:57;21.77;;;10.48;;
30249;SDS011;17064;47.974;13.826;2024-02-16T18:30:16;18.52;;;9.30;;
30249;SDS011;17064;47.974;13.826;2024-02-16T18:35:36;15.07;;;8.63;;
30249;SDS011;17064;47.974;13.826;2024-02-16T18:40:56;18.33;;;9.25;;
30249;SDS011;17064;47.974;13.826;2024-02-16T18:46:15;20.15;;;9.35;;
30249;SDS011;17064;47.974;13.826;2024-02-16T18:51:35;23.92;;;8.90;;
30249;SDS011;17064;47.974;13.826;2024-02-16T18:56:54;36.20;;;17.30;;
30249;SDS011;17064;47.974;13.826;2024-02-16T19:02:13;32.58;;;15.15;;
30249;SDS011;17064;47.974;13.826;2024-02-16T19:07:35;37.50;;;16.70;;
30249;SDS011;17064;47.974;13.826;2024-02-16T19:12:54;27.40;;;12.45;;
30249;SDS011;17064;47.974;13.826;2024-02-16T19:18:14;20.17;;;9.90;;
30249;SDS011;17064;47.974;13.826;2024-02-16T19:23:34;21.75;;;10.07;;
30249;SDS011;17064;47.974;13.826;2024-02-16T19:28:53;17.67;;;8.88;;
30249;SDS011;17064;47.974;13.826;2024-02-16T19:34:13;17.13;;;8.88;;
30249;SDS011;17064;47.974;13.826;2024-02-16T19:39:32;17.25;;;7.78;;
30249;SDS011;17064;47.974;13.826;2024-02-16T19:44:51;14.90;;;7.82;;
30249;SDS011;17064;47.974;13.826;2024-02-16T19:50:10;14.20;;;7.57;;
30249;SDS011;17064;47.974;13.826;2024-02-16T19:55:30;19.67;;;8.27;;
30249;SDS011;17064;47.974;13.826;2024-02-16T20:00:50;18.13;;;8.55;;
30249;SDS011;17064;47.974;13.826;2024-02-16T20:06:09;18.17;;;8.82;;
30249;SDS011;17064;47.974;13.826;2024-02-16T20:11:29;13.65;;;8.15;;
30249;SDS011;17064;47.974;13.826;2024-02-16T20:16:48;17.75;;;9.40;;
30249;SDS011;17064;47.974;13.826;2024-02-16T20:22:07;14.38;;;8.57;;
30249;SDS011;17064;47.974;13.826;2024-02-16T20:27:27;15.15;;;9.13;;
30249;SDS011;17064;47.974;13.826;2024-02-16T20:32:46;17.58;;;9.32;;
30249;SDS011;17064;47.974;13.826;2024-02-16T20:38:09;20.77;;;10.15;;
30249;SDS011;17064;47.974;13.826;2024-02-16T20:43:28;15.95;;;9.93;;
30249;SDS011;17064;47.974;13.826;2024-02-16T20:48:48;19.13;;;9.93;;
30249;SDS011;17064;47.974;13.826;2024-02-16T20:54:07;17.30;;;8.65;;
30249;SDS011;17064;47.974;13.826;2024-02-16T20:59:26;13.65;;;7.15;;
30249;SDS011;17064;47.974;13.826;2024-02-16T21:04:46;12.90;;;6.60;;
30249;SDS011;17064;47.974;13.826;2024-02-16T21:10:05;11.27;;;5.68;;
30249;SDS011;17064;47.974;13.826;2024-02-16T21:15:25;11.00;;;6.38;;
30249;SDS011;17064;47.974;13.826;2024-02-16T21:20:45;9.48;;;5.82;;
30249;SDS011;17064;47.974;13.826;2024-02-16T21:26:04;14.65;;;7.03;;
30249;SDS011;17064;47.974;13.826;2024-02-16T21:31:24;10.73;;;6.43;;
30249;SDS011;17064;47.974;13.826;2024-02-16T21:36:43;14.73;;;7.13;;
30249;SDS011;17064;47.974;13.826;2024-02-16T21:42:02;11.32;;;6.90;;
30249;SDS011;17064;47.974;13.826;2024-02-16T21:47:22;13.45;;;7.45;;
30249;SDS011;17064;47.974;13.826;2024-02-16T21:52:41;17.60;;;7.78;;
30249;SDS011;17064;47.974;13.826;2024-02-16T21:58:01;12.63;;;7.45;;
30249;SDS011;17064;47.974;13.826;2024-02-16T22:03:20;20.52;;;9.10;;
30249;SDS011;17064;47.974;13.826;2024-02-16T22:08:39;16.15;;;8.88;;
30249;SDS011;17064;47.974;13.826;2024-02-16T22:13:59;21.33;;;10.13;;
30249;SDS011;17064;47.974;13.826;2024-02-16T22:19:18;15.57;;;8.50;;
30249;SDS011;17064;47.974;13.826;2024-02-16T22:24:38;17.73;;;8.73;;
30249;SDS011;17064;47.974;13.826;2024-02-16T22:29:58;15.80;;;7.30;;
30249;SDS011;17064;47.974;13.826;2024-02-16T22:35:18;13.93;;;7.20;;
30249;SDS011;17064;47.974;13.826;2024-02-16T22:40:38;11.95;;;6.95;;
30249;SDS011;17064;47.974;13.826;2024-02-16T22:45:58;13.07;;;6.20;;
30249;SDS011;17064;47.974;13.826;2024-02-16T22:51:17;9.20;;;4.95;;
30249;SDS011;17064;47.974;13.826;2024-02-16T22:56:37;6.93;;;4.68;;
30249;SDS011;17064;47.974;13.826;2024-02-16T23:01:56;6.82;;;3.95;;
30249;SDS011;17064;47.974;13.826;2024-02-16T23:07:16;9.38;;;3.83;;
30249;SDS011;17064;47.974;13.826;2024-02-16T23:12:35;7.25;;;3.03;;
30249;SDS011;17064;47.974;13.826;2024-02-16T23:17:55;6.72;;;3.85;;
30249;SDS011;17064;47.974;13.826;2024-02-16T23:23:14;10.00;;;4.40;;
30249;SDS011;17064;47.974;13.826;2024-02-16T23:28:34;6.60;;;2.70;;
30249;SDS011;17064;47.974;13.826;2024-02-16T23:33:53;5.85;;;2.78;;
30249;SDS011;17064;47.974;13.826;2024-02-16T23:39:13;4.05;;;2.53;;
30249;SDS011;17064;47.974;13.826;2024-02-16T23:44:32;10.18;;;3.28;;
30249;SDS011;17064;47.974;13.826;2024-02-16T23:49:52;7.95;;;2.72;;
30249;SDS011;17064;47.974;13.826;2024-02-16T23:55:11;5.32;;;2.47;;
